createdAt,value
2018-07-05T00:01:52.058Z,21.30
2018-07-05T00:04:32.912Z,21.30
2018-07-05T00:07:13.488Z,21.20
2018-07-05T00:09:53.763Z,21.20
2018-07-05T00:12:34.228Z,21.10
2018-07-05T00:15:15.061Z,21.00
2018-07-05T00:17:59.331Z,21.00
2018-07-05T00:20:46.707Z,20.90
2018-07-05T00:23:27.196Z,20.90
2018-07-05T00:26:07.615Z,20.90
2018-07-05T00:28:48.335Z,20.80
2018-07-05T00:31:28.911Z,20.80
2018-07-05T00:45:36.992Z,20.90
2018-07-05T00:54:00.304Z,20.80
2018-07-05T00:56:41.666Z,20.80
2018-07-05T00:59:22.089Z,20.80
2018-07-05T01:02:02.739Z,20.80
2018-07-05T01:04:43.171Z,20.70
2018-07-05T01:07:24.817Z,20.70
2018-07-05T01:10:06.440Z,20.60
2018-07-05T01:12:47.951Z,20.60
2018-07-05T01:15:28.255Z,20.60
2018-07-05T01:18:08.739Z,20.70
2018-07-05T01:20:49.402Z,20.60
2018-07-05T01:23:29.987Z,20.70
2018-07-05T01:26:10.752Z,20.60
2018-07-05T01:28:51.163Z,20.50
2018-07-05T01:31:32.662Z,20.50
2018-07-05T01:34:13.166Z,20.50
2018-07-05T01:36:53.786Z,20.50
2018-07-05T01:39:34.700Z,20.50
2018-07-05T01:42:17.219Z,20.80
2018-07-05T01:45:02.049Z,20.80
2018-07-05T01:47:42.515Z,21.10
2018-07-05T01:50:22.975Z,20.90
2018-07-05T01:53:03.599Z,20.80
2018-07-05T01:55:45.760Z,20.80
2018-07-05T01:58:28.155Z,20.70
2018-07-05T02:01:08.424Z,20.80
2018-07-05T02:03:49.097Z,20.90
2018-07-05T02:06:30.276Z,20.90
2018-07-05T02:09:10.629Z,20.70
2018-07-05T02:14:26.813Z,20.60
2018-07-05T02:17:08.143Z,20.50
2018-07-05T02:19:50.966Z,20.40
2018-07-05T02:22:33.563Z,20.30
2018-07-05T02:25:21.335Z,20.30
2018-07-05T02:28:02.321Z,20.30
2018-07-05T02:30:42.903Z,20.50
2018-07-05T02:33:24.787Z,20.50
2018-07-05T02:36:05.534Z,20.50
2018-07-05T02:38:51.313Z,20.70
2018-07-05T02:41:33.158Z,20.70
2018-07-05T02:44:13.725Z,20.70
2018-07-05T02:46:54.269Z,20.60
2018-07-05T02:49:34.958Z,20.60
2018-07-05T02:52:17.332Z,20.60
2018-07-05T02:54:57.765Z,20.60
2018-07-05T02:57:38.298Z,20.70
2018-07-05T03:00:18.920Z,20.70
2018-07-05T03:02:59.343Z,20.70
2018-07-05T03:05:46.649Z,20.60
2018-07-05T03:08:27.211Z,20.70
2018-07-05T03:11:08.473Z,20.60
2018-07-05T03:13:54.886Z,20.60
2018-07-05T03:16:35.367Z,20.70
2018-07-05T03:19:17.001Z,21.00
2018-07-05T03:21:57.713Z,21.00
2018-07-05T03:24:38.628Z,21.10
2018-07-05T03:27:19.239Z,20.90
2018-07-05T03:30:04.589Z,21.00
2018-07-05T03:32:45.815Z,21.00
2018-07-05T03:35:26.347Z,20.90
2018-07-05T03:38:06.952Z,20.80
2018-07-05T03:40:49.220Z,20.80
2018-07-05T03:43:30.096Z,20.70
2018-07-05T03:46:10.611Z,20.80
2018-07-05T03:48:51.508Z,20.80
2018-07-05T03:51:38.317Z,20.90
2018-07-05T03:54:18.647Z,20.90
2018-07-05T03:56:59.222Z,20.90
2018-07-05T04:02:28.438Z,21.10
2018-07-05T04:05:09.036Z,21.30
2018-07-05T04:07:49.709Z,21.30
2018-07-05T04:10:30.358Z,21.20
2018-07-05T04:13:11.763Z,21.10
2018-07-05T04:15:54.152Z,21.20
2018-07-05T04:18:34.524Z,21.10
2018-07-05T04:21:15.191Z,21.30
2018-07-05T04:23:55.877Z,21.30
2018-07-05T04:26:42.329Z,21.40
2018-07-05T04:29:22.996Z,21.10
2018-07-05T04:32:04.390Z,21.30
2018-07-05T04:34:51.278Z,21.30
2018-07-05T04:37:32.093Z,21.30
2018-07-05T04:40:12.865Z,21.30
2018-07-05T04:42:53.446Z,21.10
2018-07-05T04:45:33.959Z,21.10
2018-07-05T04:48:14.978Z,21.10
2018-07-05T04:50:55.389Z,21.30
2018-07-05T04:53:36.108Z,21.50
2018-07-05T04:56:18.446Z,21.70
2018-07-05T04:58:59.801Z,21.70
2018-07-05T05:01:44.343Z,21.60
2018-07-05T05:04:25.869Z,21.60
2018-07-05T05:07:06.643Z,21.60
2018-07-05T05:09:47.143Z,21.80
2018-07-05T05:12:27.745Z,22.00
2018-07-05T05:15:08.603Z,22.00
2018-07-05T05:17:54.408Z,21.90
2018-07-05T05:20:35.018Z,21.90
2018-07-05T05:23:16.270Z,21.80
2018-07-05T05:25:57.702Z,21.70
2018-07-05T05:31:26.905Z,21.80
2018-07-05T05:34:07.401Z,21.90
2018-07-05T05:36:48.035Z,22.00
2018-07-05T05:39:28.502Z,22.10
2018-07-05T05:42:09.004Z,22.20
2018-07-05T05:44:49.566Z,22.20
2018-07-05T05:47:33.244Z,22.30
2018-07-05T05:50:14.749Z,22.50
2018-07-05T06:04:31.836Z,22.50
2018-07-05T06:35:49.908Z,22.00
2018-07-05T06:38:30.350Z,21.70
2018-07-05T06:41:10.902Z,21.60
2018-07-05T06:43:51.957Z,21.30
2018-07-05T06:46:32.526Z,21.40
2018-07-05T06:49:13.605Z,21.30
2018-07-05T06:51:54.216Z,21.30
2018-07-05T06:54:34.616Z,20.90
2018-07-05T06:57:15.319Z,20.80
2018-07-05T06:59:55.829Z,20.90
2018-07-05T07:02:36.325Z,21.10
2018-07-05T07:05:17.865Z,21.20
2018-07-05T07:07:58.452Z,21.30
2018-07-05T07:10:39.248Z,21.00
2018-07-05T07:13:19.709Z,21.20
2018-07-05T07:16:00.428Z,21.20
2018-07-05T07:18:41.037Z,21.30
2018-07-05T07:21:21.826Z,21.20
2018-07-05T07:24:02.561Z,21.10
2018-07-05T07:26:43.072Z,21.00
2018-07-05T07:29:23.649Z,21.00
2018-07-05T07:32:04.219Z,21.10
2018-07-05T07:34:44.653Z,21.30
2018-07-05T07:37:25.233Z,21.50
2018-07-05T07:42:27.740Z,21.60
2018-07-05T07:44:55.871Z,21.80
2018-07-05T07:47:24.024Z,21.90
2018-07-05T07:49:52.228Z,22.10
2018-07-05T07:52:20.395Z,22.10
2018-07-05T07:54:49.409Z,21.90
2018-07-05T07:57:17.546Z,22.00
2018-07-05T07:59:46.546Z,22.00
2018-07-05T08:02:15.041Z,21.90
2018-07-05T08:04:43.798Z,22.00
2018-07-05T08:07:12.621Z,22.20
2018-07-05T08:09:41.061Z,22.30
2018-07-05T08:12:09.600Z,22.20
2018-07-05T08:14:38.438Z,22.30
2018-07-05T08:17:06.581Z,22.20
2018-07-05T08:19:34.712Z,22.20
2018-07-05T08:22:02.895Z,22.10
2018-07-05T08:24:31.158Z,22.30
2018-07-05T08:26:59.374Z,22.50
2018-07-05T08:29:30.289Z,22.60
2018-07-05T08:31:58.481Z,22.50
2018-07-05T08:34:26.620Z,22.60
2018-07-05T08:36:54.753Z,22.60
2018-07-05T08:39:22.916Z,22.60
2018-07-05T08:41:51.094Z,22.80
2018-07-05T08:44:19.841Z,23.00
2018-07-05T08:46:47.931Z,23.20
2018-07-05T08:49:16.077Z,23.40
2018-07-05T08:51:44.250Z,23.60
2018-07-05T08:54:12.540Z,23.80
2018-07-05T08:56:40.674Z,24.10
2018-07-05T08:59:08.881Z,24.60
2018-07-05T09:01:37.040Z,25.20
2018-07-05T09:06:33.984Z,26.30
2018-07-05T09:09:02.176Z,26.60
2018-07-05T09:11:30.342Z,26.90
2018-07-05T09:13:58.536Z,26.90
2018-07-05T09:16:26.768Z,27.70
2018-07-05T09:18:54.969Z,28.20
2018-07-05T09:21:23.090Z,28.80
2018-07-05T09:23:51.234Z,29.10
2018-07-05T09:26:19.361Z,29.30
2018-07-05T09:28:47.503Z,29.60
2018-07-05T09:31:15.710Z,29.70
2018-07-05T09:33:43.740Z,29.90
2018-07-05T09:36:11.862Z,30.00
2018-07-05T09:38:40.630Z,30.00
2018-07-05T09:41:08.793Z,30.10
2018-07-05T09:43:36.885Z,30.40
2018-07-05T09:46:05.187Z,30.40
2018-07-05T09:48:33.411Z,30.60
2018-07-05T09:51:01.513Z,30.70
2018-07-05T09:53:29.612Z,30.90
2018-07-05T09:55:57.726Z,31.00
2018-07-05T09:58:25.961Z,31.00
2018-07-05T10:00:54.082Z,31.00
2018-07-05T10:03:22.886Z,31.20
2018-07-05T10:05:51.015Z,31.50
2018-07-05T10:08:19.499Z,31.60
2018-07-05T10:10:47.606Z,31.40
2018-07-05T10:13:15.825Z,31.60
2018-07-05T10:15:43.838Z,32.00
2018-07-05T10:20:40.183Z,32.10
2018-07-05T10:23:08.311Z,32.00
2018-07-05T10:25:36.512Z,32.10
2018-07-05T10:28:04.653Z,32.30
2018-07-05T10:30:44.936Z,32.40
2018-07-05T10:33:25.465Z,32.50
2018-07-05T10:35:54.338Z,32.30
2018-07-05T10:38:22.540Z,32.20
2018-07-05T10:41:02.970Z,32.10
2018-07-05T10:43:43.432Z,32.20
2018-07-05T10:46:23.961Z,32.40
2018-07-05T10:49:04.537Z,32.20
2018-07-05T10:51:45.167Z,32.40
2018-07-05T10:54:25.585Z,32.30
2018-07-05T10:57:06.089Z,32.30
2018-07-05T10:59:47.264Z,32.30
2018-07-05T11:02:27.732Z,32.00
2018-07-05T11:05:08.218Z,32.00
2018-07-05T11:07:48.926Z,32.10
2018-07-05T11:10:29.362Z,31.90
2018-07-05T11:13:09.907Z,31.70
2018-07-05T11:15:50.892Z,31.60
2018-07-05T11:18:31.346Z,31.50
2018-07-05T11:23:46.170Z,31.20
2018-07-05T11:26:26.673Z,31.10
2018-07-05T11:29:07.015Z,30.50
2018-07-05T11:31:47.471Z,30.10
2018-07-05T11:34:27.946Z,30.10
2018-07-05T11:37:08.495Z,29.80
2018-07-05T11:39:49.093Z,29.70
2018-07-05T11:42:29.537Z,29.60
2018-07-05T11:45:10.066Z,29.80
2018-07-05T11:47:50.491Z,30.10
2018-07-05T11:50:30.984Z,30.10
2018-07-05T11:53:12.193Z,30.20
2018-07-05T11:55:52.717Z,30.30
2018-07-05T11:58:33.337Z,30.40
2018-07-05T12:01:13.869Z,30.50
2018-07-05T12:03:54.372Z,30.20
2018-07-05T12:06:34.991Z,30.30
2018-07-05T12:09:15.434Z,30.50
2018-07-05T12:11:55.905Z,30.20
2018-07-05T12:14:36.509Z,29.90
2018-07-05T12:17:17.119Z,29.70
2018-07-05T12:19:57.711Z,29.70
2018-07-05T12:22:38.129Z,29.70
2018-07-05T12:25:18.459Z,29.70
2018-07-05T12:27:58.940Z,29.50
2018-07-05T12:30:39.510Z,29.00
2018-07-05T12:33:20.169Z,28.80
2018-07-05T12:36:00.841Z,28.70
2018-07-05T12:38:41.288Z,28.90
2018-07-05T12:41:21.804Z,28.90
2018-07-05T12:44:02.418Z,28.90
2018-07-05T12:46:42.796Z,29.30
2018-07-05T12:49:23.295Z,29.60
2018-07-05T12:52:03.674Z,29.30
2018-07-05T12:54:44.249Z,29.10
2018-07-05T12:57:24.817Z,29.20
2018-07-05T13:00:05.253Z,29.20
2018-07-05T13:02:45.805Z,29.30
2018-07-05T13:05:27.040Z,29.80
2018-07-05T13:08:07.624Z,30.40
2018-07-05T13:10:48.086Z,31.00
2018-07-05T13:13:28.599Z,31.50
2018-07-05T13:16:09.296Z,31.30
2018-07-05T13:18:51.892Z,31.50
2018-07-05T13:21:32.330Z,31.30
2018-07-05T13:24:12.864Z,31.20
2018-07-05T13:26:53.613Z,31.10
2018-07-05T13:29:40.494Z,30.80
2018-07-05T13:32:21.687Z,30.70
2018-07-05T13:35:02.704Z,30.30
2018-07-05T13:37:43.858Z,30.10
2018-07-05T13:40:24.317Z,30.00
2018-07-05T13:43:04.758Z,29.70
2018-07-05T13:45:50.058Z,29.40
2018-07-05T13:48:31.331Z,29.10
2018-07-05T13:51:11.907Z,28.90
2018-07-05T13:53:52.333Z,28.90
2018-07-05T13:56:32.956Z,28.80
2018-07-05T13:59:13.523Z,28.50
2018-07-05T14:01:54.099Z,28.30
2018-07-05T14:04:35.021Z,28.10
2018-07-05T14:07:15.663Z,28.10
2018-07-05T14:09:56.121Z,28.00
2018-07-05T14:12:36.737Z,27.90
2018-07-05T14:15:17.077Z,27.80
2018-07-05T14:17:57.671Z,27.70
2018-07-05T14:20:38.122Z,27.60
2018-07-05T14:23:18.780Z,27.70
2018-07-05T14:25:59.304Z,27.70
2018-07-05T14:28:39.807Z,27.90
2018-07-05T14:31:20.282Z,28.40
2018-07-05T14:34:00.735Z,28.90
2018-07-05T14:36:45.384Z,29.40
2018-07-05T14:42:11.906Z,29.80
2018-07-05T14:44:52.328Z,29.70
2018-07-05T14:47:33.214Z,29.70
2018-07-05T14:50:13.821Z,29.70
2018-07-05T14:52:54.993Z,29.50
2018-07-05T14:55:35.569Z,29.30
2018-07-05T14:58:17.237Z,29.20
2018-07-05T15:00:57.619Z,29.00
2018-07-05T15:03:39.901Z,28.80
2018-07-05T15:06:20.408Z,28.60
2018-07-05T15:09:00.753Z,28.40
2018-07-05T15:11:41.326Z,28.20
2018-07-05T15:14:22.084Z,28.10
2018-07-05T15:17:02.679Z,28.00
2018-07-05T15:19:43.267Z,28.00
2018-07-05T15:22:23.760Z,28.10
2018-07-05T15:25:08.076Z,28.10
2018-07-05T15:27:48.661Z,28.10
2018-07-05T15:30:29.874Z,28.10
2018-07-05T15:33:10.330Z,28.20
2018-07-05T15:35:51.290Z,28.10
2018-07-05T15:38:31.864Z,28.00
2018-07-05T15:41:12.508Z,27.80
2018-07-05T15:43:53.065Z,27.60
2018-07-05T15:46:33.414Z,27.50
2018-07-05T15:49:15.819Z,27.50
2018-07-05T15:51:56.175Z,27.50
2018-07-05T15:54:36.787Z,27.50
2018-07-05T15:57:17.264Z,27.30
2018-07-05T15:59:58.308Z,27.40
2018-07-05T16:02:38.734Z,27.60
2018-07-05T16:05:19.447Z,27.80
2018-07-05T16:08:00.072Z,28.00
2018-07-05T16:10:40.600Z,28.10
2018-07-05T16:13:23.688Z,28.20
2018-07-05T16:16:04.220Z,28.30
2018-07-05T16:18:48.508Z,28.20
2018-07-05T16:21:29.175Z,28.30
2018-07-05T16:24:10.404Z,28.20
2018-07-05T16:26:50.843Z,28.20
2018-07-05T16:29:31.235Z,28.20
2018-07-05T16:32:12.705Z,28.20
2018-07-05T16:34:53.144Z,28.30
2018-07-05T16:37:33.778Z,28.40
2018-07-05T16:40:14.326Z,28.30
2018-07-05T16:42:54.851Z,28.30
2018-07-05T16:45:39.750Z,28.30
2018-07-05T16:48:20.262Z,28.20
2018-07-05T16:51:00.743Z,28.20
2018-07-05T16:53:41.471Z,28.20
2018-07-05T16:56:21.831Z,28.10
2018-07-05T16:59:02.155Z,28.00
2018-07-05T17:01:42.729Z,28.00
2018-07-05T17:04:23.282Z,27.90
2018-07-05T17:07:03.905Z,27.70
2018-07-05T17:09:45.682Z,27.60
2018-07-05T17:12:26.284Z,27.60
2018-07-05T17:15:06.897Z,27.50
2018-07-05T17:17:51.342Z,27.20
2018-07-05T17:20:32.187Z,27.10
2018-07-05T17:23:12.966Z,27.10
2018-07-05T17:25:53.497Z,27.10
2018-07-05T17:28:33.971Z,27.00
2018-07-05T17:31:14.361Z,27.00
2018-07-05T17:33:54.920Z,26.90
2018-07-05T17:36:36.050Z,26.90
2018-07-05T17:39:16.535Z,26.70
2018-07-05T17:41:57.736Z,26.60
2018-07-05T17:44:38.632Z,26.60
2018-07-05T17:47:19.115Z,26.50
2018-07-05T17:49:59.667Z,26.40
2018-07-05T17:52:40.165Z,26.40
2018-07-05T17:55:21.152Z,26.30
2018-07-05T17:58:01.588Z,26.20
2018-07-05T18:00:42.938Z,26.10
2018-07-05T18:03:23.864Z,26.00
2018-07-05T18:06:04.404Z,25.80
2018-07-05T18:08:45.984Z,25.80
2018-07-05T18:11:28.316Z,25.70
2018-07-05T18:14:09.511Z,25.70
2018-07-05T18:16:50.761Z,25.70
2018-07-05T18:19:31.477Z,25.70
2018-07-05T18:24:47.237Z,25.50
2018-07-05T18:27:27.992Z,25.50
2018-07-05T18:30:08.609Z,25.50
2018-07-05T18:32:51.600Z,25.50
2018-07-05T18:35:33.870Z,25.30
2018-07-05T18:38:15.710Z,25.30
2018-07-05T18:40:56.592Z,25.20
2018-07-05T18:43:37.113Z,25.20
2018-07-05T18:46:19.117Z,25.00
2018-07-05T18:49:01.642Z,25.00
2018-07-05T18:51:42.774Z,24.90
2018-07-05T18:54:23.678Z,24.80
2018-07-05T18:57:04.766Z,24.70
2018-07-05T18:59:45.849Z,24.60
2018-07-05T19:02:27.411Z,24.50
2018-07-05T19:05:07.884Z,24.40
2018-07-05T19:07:48.433Z,24.40
2018-07-05T19:10:29.155Z,24.30
2018-07-05T19:13:09.716Z,24.20
2018-07-05T19:15:51.678Z,24.20
2018-07-05T19:18:32.879Z,24.10
2018-07-05T19:21:13.485Z,24.10
2018-07-05T19:23:54.006Z,24.00
2018-07-05T19:26:35.403Z,23.80
2018-07-05T19:29:15.821Z,23.70
2018-07-05T19:31:56.462Z,23.60
2018-07-05T19:34:37.048Z,23.40
2018-07-05T19:37:18.111Z,23.30
2018-07-05T19:39:58.673Z,23.30
2018-07-05T19:42:39.312Z,23.20
2018-07-05T19:47:54.260Z,23.00
2018-07-05T19:50:34.690Z,22.90
2018-07-05T19:53:15.261Z,22.60
2018-07-05T19:55:55.699Z,22.60
2018-07-05T19:58:36.667Z,22.60
2018-07-05T20:01:17.508Z,22.60
2018-07-05T20:06:32.352Z,22.60
2018-07-05T20:09:13.028Z,22.40
2018-07-05T20:11:58.820Z,22.20
2018-07-05T20:17:15.053Z,22.00
2018-07-05T20:19:57.334Z,22.10
2018-07-05T20:22:37.831Z,22.10
2018-07-05T20:25:18.454Z,22.10
2018-07-05T20:27:59.756Z,22.20
2018-07-05T20:30:40.107Z,22.00
2018-07-05T20:33:21.849Z,22.00
2018-07-05T20:36:03.059Z,21.90
2018-07-05T20:38:43.453Z,21.70
2018-07-05T20:41:23.921Z,21.70
2018-07-05T20:44:05.273Z,21.90
2018-07-05T20:46:46.064Z,21.90
2018-07-05T20:49:26.888Z,21.90
2018-07-05T20:54:41.817Z,21.40
2018-07-05T20:57:22.416Z,21.30
2018-07-05T21:00:02.974Z,21.20
2018-07-05T21:02:44.145Z,21.20
2018-07-05T21:05:24.503Z,21.20
2018-07-05T21:08:04.950Z,21.00
2018-07-05T21:10:45.528Z,20.90
2018-07-05T21:13:28.636Z,20.80
2018-07-05T21:16:09.271Z,21.00
2018-07-05T21:18:49.896Z,20.90
2018-07-05T21:21:30.745Z,20.70
2018-07-05T21:24:11.447Z,20.50
2018-07-05T21:26:52.745Z,20.50
2018-07-05T21:29:34.074Z,20.50
2018-07-05T21:32:14.361Z,20.30
2018-07-05T21:34:54.795Z,20.30
2018-07-05T21:37:36.805Z,20.10
2018-07-05T21:40:17.384Z,20.10
2018-07-05T21:42:58.656Z,19.90
2018-07-05T21:45:39.968Z,19.90
2018-07-05T21:48:20.412Z,19.80
2018-07-05T21:51:00.952Z,19.70
2018-07-05T21:53:41.490Z,19.90
2018-07-05T21:56:22.072Z,19.80
2018-07-05T21:59:02.514Z,19.90
2018-07-05T22:01:43.160Z,19.70
2018-07-05T22:04:23.713Z,19.70
2018-07-05T22:07:04.564Z,19.70
2018-07-05T22:09:44.842Z,19.60
2018-07-05T22:12:25.638Z,19.60
2018-07-05T22:15:06.147Z,19.60
2018-07-05T22:17:52.036Z,19.70
2018-07-05T22:20:38.000Z,19.70
2018-07-05T22:23:23.615Z,19.60
2018-07-05T22:26:09.442Z,19.50
2018-07-05T22:28:55.412Z,19.50
2018-07-05T22:31:35.810Z,19.50
2018-07-05T22:34:16.392Z,19.40
2018-07-05T22:36:57.138Z,19.30
2018-07-05T22:39:37.651Z,19.20
2018-07-05T22:42:18.051Z,19.30
2018-07-05T22:44:58.466Z,19.10
2018-07-05T22:47:40.065Z,19.00
2018-07-05T22:50:20.714Z,19.10
2018-07-05T22:53:01.132Z,18.90
2018-07-05T22:55:41.711Z,19.00
2018-07-05T22:58:22.181Z,18.80
2018-07-05T23:01:02.772Z,18.70
2018-07-05T23:03:43.974Z,18.60
2018-07-05T23:06:24.491Z,18.60
2018-07-05T23:09:05.318Z,18.60
2018-07-05T23:11:50.288Z,18.40
2018-07-05T23:14:32.488Z,18.40
2018-07-05T23:17:13.000Z,18.30
2018-07-05T23:19:53.533Z,18.20
2018-07-05T23:22:34.054Z,18.10
2018-07-05T23:25:14.461Z,18.10
2018-07-05T23:27:54.855Z,18.00
2018-07-05T23:30:35.241Z,18.00
2018-07-05T23:33:15.669Z,18.00
2018-07-05T23:35:56.152Z,18.00
2018-07-05T23:38:36.582Z,17.90
2018-07-05T23:41:17.367Z,17.80
2018-07-05T23:43:57.824Z,17.80
2018-07-05T23:46:38.609Z,17.70
2018-07-05T23:49:19.035Z,17.80
2018-07-05T23:51:59.461Z,17.70
2018-07-05T23:54:39.819Z,17.70
2018-07-05T23:59:54.520Z,17.60
